sensor_id;sensor_type;location;lat;lon;timestamp;P1;durP1;ratioP1;P2;durP2;ratioP2
27225;SDS011;14732;51.074;3.788;2022-11-18T00:00:25;3.83;;;2.00;;
27225;SDS011;14732;51.074;3.788;2022-11-18T00:02:51;4.90;;;1.80;;
27225;SDS011;14732;51.074;3.788;2022-11-18T00:05:17;10.32;;;2.20;;
27225;SDS011;14732;51.074;3.788;2022-11-18T00:07:42;4.38;;;1.83;;
27225;SDS011;14732;51.074;3.788;2022-11-18T00:10:08;8.48;;;1.95;;
27225;SDS011;14732;51.074;3.788;2022-11-18T00:12:33;4.25;;;1.90;;
27225;SDS011;14732;51.074;3.788;2022-11-18T00:15:17;5.43;;;2.13;;
27225;SDS011;14732;51.074;3.788;2022-11-18T00:17:43;5.18;;;2.03;;
27225;SDS011;14732;51.074;3.788;2022-11-18T00:20:09;4.55;;;2.22;;
27225;SDS011;14732;51.074;3.788;2022-11-18T00:22:34;7.82;;;2.10;;
27225;SDS011;14732;51.074;3.788;2022-11-18T00:25:00;4.97;;;1.70;;
27225;SDS011;14732;51.074;3.788;2022-11-18T00:27:28;3.67;;;2.08;;
27225;SDS011;14732;51.074;3.788;2022-11-18T00:29:55;4.35;;;2.33;;
27225;SDS011;14732;51.074;3.788;2022-11-18T00:32:21;4.25;;;2.20;;
27225;SDS011;14732;51.074;3.788;2022-11-18T00:34:47;6.05;;;2.25;;
27225;SDS011;14732;51.074;3.788;2022-11-18T00:37:12;4.65;;;2.10;;
27225;SDS011;14732;51.074;3.788;2022-11-18T00:39:38;6.38;;;2.53;;
27225;SDS011;14732;51.074;3.788;2022-11-18T00:42:03;3.92;;;2.33;;
27225;SDS011;14732;51.074;3.788;2022-11-18T00:44:48;5.72;;;2.33;;
27225;SDS011;14732;51.074;3.788;2022-11-18T00:47:14;4.72;;;2.35;;
27225;SDS011;14732;51.074;3.788;2022-11-18T00:49:39;3.38;;;2.22;;
27225;SDS011;14732;51.074;3.788;2022-11-18T00:52:05;5.47;;;2.65;;
27225;SDS011;14732;51.074;3.788;2022-11-18T00:54:30;11.27;;;3.30;;
27225;SDS011;14732;51.074;3.788;2022-11-18T00:56:56;4.90;;;2.15;;
27225;SDS011;14732;51.074;3.788;2022-11-18T00:59:22;5.32;;;3.00;;
27225;SDS011;14732;51.074;3.788;2022-11-18T01:01:47;11.27;;;3.10;;
27225;SDS011;14732;51.074;3.788;2022-11-18T01:04:13;5.63;;;2.38;;
27225;SDS011;14732;51.074;3.788;2022-11-18T01:06:39;8.23;;;2.88;;
27225;SDS011;14732;51.074;3.788;2022-11-18T01:09:05;7.15;;;2.72;;
27225;SDS011;14732;51.074;3.788;2022-11-18T01:11:31;10.27;;;3.00;;
27225;SDS011;14732;51.074;3.788;2022-11-18T01:14:15;7.45;;;2.92;;
27225;SDS011;14732;51.074;3.788;2022-11-18T01:16:42;7.95;;;2.97;;
27225;SDS011;14732;51.074;3.788;2022-11-18T01:19:07;7.03;;;2.88;;
27225;SDS011;14732;51.074;3.788;2022-11-18T01:21:33;6.65;;;3.00;;
27225;SDS011;14732;51.074;3.788;2022-11-18T01:23:59;9.52;;;2.72;;
27225;SDS011;14732;51.074;3.788;2022-11-18T01:26:24;8.82;;;3.10;;
27225;SDS011;14732;51.074;3.788;2022-11-18T01:28:53;7.25;;;2.70;;
27225;SDS011;14732;51.074;3.788;2022-11-18T01:31:20;6.68;;;2.70;;
27225;SDS011;14732;51.074;3.788;2022-11-18T01:33:46;7.38;;;3.00;;
27225;SDS011;14732;51.074;3.788;2022-11-18T01:36:16;9.32;;;2.97;;
27225;SDS011;14732;51.074;3.788;2022-11-18T01:38:43;6.82;;;2.72;;
27225;SDS011;14732;51.074;3.788;2022-11-18T01:41:09;5.55;;;3.00;;
27225;SDS011;14732;51.074;3.788;2022-11-18T01:46:50;4.28;;;2.53;;
27225;SDS011;14732;51.074;3.788;2022-11-18T01:49:16;9.38;;;2.83;;
27225;SDS011;14732;51.074;3.788;2022-11-18T01:51:49;6.55;;;2.60;;
27225;SDS011;14732;51.074;3.788;2022-11-18T01:54:30;7.60;;;2.40;;
27225;SDS011;14732;51.074;3.788;2022-11-18T01:57:01;11.30;;;3.05;;
27225;SDS011;14732;51.074;3.788;2022-11-18T01:59:31;7.38;;;2.70;;
27225;SDS011;14732;51.074;3.788;2022-11-18T02:04:27;5.68;;;2.30;;
27225;SDS011;14732;51.074;3.788;2022-11-18T02:06:52;8.18;;;2.72;;
27225;SDS011;14732;51.074;3.788;2022-11-18T02:09:19;7.90;;;2.60;;
27225;SDS011;14732;51.074;3.788;2022-11-18T02:11:45;5.63;;;2.75;;
27225;SDS011;14732;51.074;3.788;2022-11-18T02:14:14;8.00;;;2.40;;
27225;SDS011;14732;51.074;3.788;2022-11-18T02:25:02;7.57;;;2.33;;
27225;SDS011;14732;51.074;3.788;2022-11-18T02:33:16;8.60;;;2.80;;
27225;SDS011;14732;51.074;3.788;2022-11-18T02:35:50;8.25;;;2.50;;
27225;SDS011;14732;51.074;3.788;2022-11-18T02:38:26;6.35;;;2.45;;
27225;SDS011;14732;51.074;3.788;2022-11-18T02:40:56;7.82;;;2.75;;
27225;SDS011;14732;51.074;3.788;2022-11-18T02:43:29;8.90;;;2.50;;
27225;SDS011;14732;51.074;3.788;2022-11-18T02:46:19;7.55;;;2.45;;
27225;SDS011;14732;51.074;3.788;2022-11-18T02:48:51;10.80;;;2.80;;
27225;SDS011;14732;51.074;3.788;2022-11-18T02:51:19;10.02;;;2.40;;
27225;SDS011;14732;51.074;3.788;2022-11-18T02:53:48;8.68;;;2.50;;
27225;SDS011;14732;51.074;3.788;2022-11-18T02:56:16;11.05;;;2.63;;
27225;SDS011;14732;51.074;3.788;2022-11-18T02:58:44;8.90;;;2.40;;
27225;SDS011;14732;51.074;3.788;2022-11-18T03:01:17;7.97;;;2.55;;
27225;SDS011;14732;51.074;3.788;2022-11-18T03:03:45;11.82;;;2.10;;
27225;SDS011;14732;51.074;3.788;2022-11-18T03:08:58;10.65;;;2.40;;
27225;SDS011;14732;51.074;3.788;2022-11-18T03:22:04;6.57;;;2.65;;
27225;SDS011;14732;51.074;3.788;2022-11-18T03:24:38;6.50;;;2.65;;
27225;SDS011;14732;51.074;3.788;2022-11-18T03:27:18;11.88;;;2.60;;
27225;SDS011;14732;51.074;3.788;2022-11-18T03:29:54;5.70;;;2.25;;
27225;SDS011;14732;51.074;3.788;2022-11-18T03:32:25;10.38;;;2.45;;
27225;SDS011;14732;51.074;3.788;2022-11-18T03:35:00;8.20;;;2.23;;
27225;SDS011;14732;51.074;3.788;2022-11-18T03:37:30;7.60;;;2.40;;
27225;SDS011;14732;51.074;3.788;2022-11-18T03:40:01;9.00;;;2.60;;
27225;SDS011;14732;51.074;3.788;2022-11-18T03:42:32;6.38;;;2.38;;
27225;SDS011;14732;51.074;3.788;2022-11-18T03:45:05;7.82;;;2.17;;
27225;SDS011;14732;51.074;3.788;2022-11-18T03:47:41;9.10;;;2.40;;
27225;SDS011;14732;51.074;3.788;2022-11-18T03:50:25;10.10;;;2.42;;
27225;SDS011;14732;51.074;3.788;2022-11-18T03:52:56;7.68;;;2.00;;
27225;SDS011;14732;51.074;3.788;2022-11-18T03:55:25;7.35;;;1.95;;
27225;SDS011;14732;51.074;3.788;2022-11-18T04:00:25;10.73;;;2.40;;
27225;SDS011;14732;51.074;3.788;2022-11-18T04:02:56;8.77;;;1.88;;
27225;SDS011;14732;51.074;3.788;2022-11-18T04:05:22;7.28;;;1.80;;
27225;SDS011;14732;51.074;3.788;2022-11-18T04:07:53;6.03;;;2.17;;
27225;SDS011;14732;51.074;3.788;2022-11-18T04:10:34;7.07;;;1.95;;
27225;SDS011;14732;51.074;3.788;2022-11-18T04:13:09;9.75;;;2.33;;
27225;SDS011;14732;51.074;3.788;2022-11-18T04:15:37;6.78;;;1.92;;
27225;SDS011;14732;51.074;3.788;2022-11-18T04:18:04;7.20;;;2.13;;
27225;SDS011;14732;51.074;3.788;2022-11-18T04:20:30;6.65;;;1.88;;
27225;SDS011;14732;51.074;3.788;2022-11-18T04:22:57;7.60;;;2.10;;
27225;SDS011;14732;51.074;3.788;2022-11-18T04:25:23;9.07;;;2.08;;
27225;SDS011;14732;51.074;3.788;2022-11-18T04:27:49;10.88;;;1.83;;
27225;SDS011;14732;51.074;3.788;2022-11-18T04:30:15;8.68;;;2.20;;
27225;SDS011;14732;51.074;3.788;2022-11-18T04:32:41;6.18;;;2.10;;
27225;SDS011;14732;51.074;3.788;2022-11-18T04:35:07;9.48;;;2.40;;
27225;SDS011;14732;51.074;3.788;2022-11-18T04:37:33;11.48;;;2.58;;
27225;SDS011;14732;51.074;3.788;2022-11-18T04:39:58;8.93;;;2.67;;
27225;SDS011;14732;51.074;3.788;2022-11-18T04:42:24;7.35;;;2.90;;
27225;SDS011;14732;51.074;3.788;2022-11-18T04:44:50;9.57;;;3.17;;
27225;SDS011;14732;51.074;3.788;2022-11-18T04:47:15;8.75;;;2.97;;
27225;SDS011;14732;51.074;3.788;2022-11-18T04:49:41;19.40;;;3.28;;
27225;SDS011;14732;51.074;3.788;2022-11-18T04:52:07;14.38;;;3.20;;
27225;SDS011;14732;51.074;3.788;2022-11-18T04:54:32;6.70;;;3.17;;
27225;SDS011;14732;51.074;3.788;2022-11-18T04:56:58;9.05;;;3.22;;
27225;SDS011;14732;51.074;3.788;2022-11-18T04:59:24;12.02;;;4.07;;
27225;SDS011;14732;51.074;3.788;2022-11-18T05:01:52;12.05;;;3.30;;
27225;SDS011;14732;51.074;3.788;2022-11-18T05:04:19;9.57;;;3.40;;
27225;SDS011;14732;51.074;3.788;2022-11-18T05:06:47;12.15;;;3.78;;
27225;SDS011;14732;51.074;3.788;2022-11-18T05:09:13;11.57;;;4.03;;
27225;SDS011;14732;51.074;3.788;2022-11-18T05:11:39;13.68;;;3.90;;
27225;SDS011;14732;51.074;3.788;2022-11-18T05:14:24;10.00;;;3.92;;
27225;SDS011;14732;51.074;3.788;2022-11-18T05:16:51;11.90;;;4.18;;
27225;SDS011;14732;51.074;3.788;2022-11-18T05:19:18;9.75;;;3.75;;
27225;SDS011;14732;51.074;3.788;2022-11-18T05:21:43;14.23;;;3.60;;
27225;SDS011;14732;51.074;3.788;2022-11-18T05:24:09;15.57;;;3.28;;
27225;SDS011;14732;51.074;3.788;2022-11-18T05:26:35;9.70;;;3.70;;
27225;SDS011;14732;51.074;3.788;2022-11-18T05:29:01;14.23;;;3.28;;
27225;SDS011;14732;51.074;3.788;2022-11-18T05:31:27;12.93;;;3.25;;
27225;SDS011;14732;51.074;3.788;2022-11-18T05:33:52;14.70;;;2.80;;
27225;SDS011;14732;51.074;3.788;2022-11-18T05:36:19;13.68;;;2.95;;
27225;SDS011;14732;51.074;3.788;2022-11-18T05:38:45;9.65;;;3.28;;
27225;SDS011;14732;51.074;3.788;2022-11-18T05:41:11;6.88;;;2.30;;
27225;SDS011;14732;51.074;3.788;2022-11-18T05:43:57;13.57;;;2.55;;
27225;SDS011;14732;51.074;3.788;2022-11-18T05:46:23;8.32;;;2.35;;
27225;SDS011;14732;51.074;3.788;2022-11-18T05:48:48;9.70;;;2.47;;
27225;SDS011;14732;51.074;3.788;2022-11-18T05:51:14;10.52;;;2.35;;
27225;SDS011;14732;51.074;3.788;2022-11-18T05:53:40;19.35;;;3.17;;
27225;SDS011;14732;51.074;3.788;2022-11-18T05:56:08;10.38;;;2.40;;
27225;SDS011;14732;51.074;3.788;2022-11-18T05:58:45;11.73;;;2.75;;
27225;SDS011;14732;51.074;3.788;2022-11-18T06:01:11;9.57;;;2.42;;
27225;SDS011;14732;51.074;3.788;2022-11-18T06:03:41;9.77;;;2.33;;
27225;SDS011;14732;51.074;3.788;2022-11-18T06:06:07;13.88;;;2.40;;
27225;SDS011;14732;51.074;3.788;2022-11-18T06:08:35;14.18;;;2.75;;
27225;SDS011;14732;51.074;3.788;2022-11-18T06:11:04;16.15;;;2.90;;
27225;SDS011;14732;51.074;3.788;2022-11-18T06:13:35;8.05;;;2.08;;
27225;SDS011;14732;51.074;3.788;2022-11-18T06:16:04;10.02;;;2.22;;
27225;SDS011;14732;51.074;3.788;2022-11-18T06:18:30;12.68;;;2.60;;
27225;SDS011;14732;51.074;3.788;2022-11-18T06:20:57;10.23;;;2.10;;
27225;SDS011;14732;51.074;3.788;2022-11-18T06:23:27;12.68;;;2.30;;
27225;SDS011;14732;51.074;3.788;2022-11-18T06:25:57;9.65;;;2.08;;
27225;SDS011;14732;51.074;3.788;2022-11-18T06:28:23;15.57;;;2.70;;
27225;SDS011;14732;51.074;3.788;2022-11-18T06:30:50;6.28;;;2.00;;
27225;SDS011;14732;51.074;3.788;2022-11-18T06:33:17;9.73;;;2.35;;
27225;SDS011;14732;51.074;3.788;2022-11-18T06:35:42;9.90;;;2.00;;
27225;SDS011;14732;51.074;3.788;2022-11-18T06:38:08;12.23;;;2.42;;
27225;SDS011;14732;51.074;3.788;2022-11-18T06:40:34;11.68;;;1.98;;
27225;SDS011;14732;51.074;3.788;2022-11-18T06:43:06;8.27;;;2.03;;
27225;SDS011;14732;51.074;3.788;2022-11-18T06:45:52;5.35;;;2.10;;
27225;SDS011;14732;51.074;3.788;2022-11-18T06:48:40;10.35;;;2.53;;
27225;SDS011;14732;51.074;3.788;2022-11-18T06:51:06;10.77;;;2.58;;
27225;SDS011;14732;51.074;3.788;2022-11-18T06:53:32;8.13;;;2.05;;
27225;SDS011;14732;51.074;3.788;2022-11-18T06:56:01;9.55;;;2.28;;
27225;SDS011;14732;51.074;3.788;2022-11-18T06:58:31;12.27;;;1.92;;
27225;SDS011;14732;51.074;3.788;2022-11-18T07:00:57;9.50;;;2.33;;
27225;SDS011;14732;51.074;3.788;2022-11-18T07:03:32;7.20;;;1.98;;
27225;SDS011;14732;51.074;3.788;2022-11-18T07:05:57;9.77;;;2.05;;
27225;SDS011;14732;51.074;3.788;2022-11-18T07:08:23;8.68;;;2.00;;
27225;SDS011;14732;51.074;3.788;2022-11-18T07:10:52;11.02;;;2.45;;
27225;SDS011;14732;51.074;3.788;2022-11-18T07:13:18;6.18;;;2.10;;
27225;SDS011;14732;51.074;3.788;2022-11-18T07:15:44;7.60;;;2.10;;
27225;SDS011;14732;51.074;3.788;2022-11-18T07:18:09;7.90;;;2.03;;
27225;SDS011;14732;51.074;3.788;2022-11-18T07:20:35;8.15;;;2.17;;
27225;SDS011;14732;51.074;3.788;2022-11-18T07:23:01;6.47;;;1.92;;
27225;SDS011;14732;51.074;3.788;2022-11-18T07:25:26;13.38;;;2.03;;
27225;SDS011;14732;51.074;3.788;2022-11-18T07:27:52;7.82;;;2.13;;
27225;SDS011;14732;51.074;3.788;2022-11-18T07:30:17;9.32;;;1.98;;
27225;SDS011;14732;51.074;3.788;2022-11-18T07:32:43;9.73;;;2.13;;
27225;SDS011;14732;51.074;3.788;2022-11-18T07:35:09;16.23;;;1.90;;
27225;SDS011;14732;51.074;3.788;2022-11-18T07:37:34;6.05;;;2.13;;
27225;SDS011;14732;51.074;3.788;2022-11-18T07:40:00;9.43;;;2.00;;
27225;SDS011;14732;51.074;3.788;2022-11-18T07:42:26;6.57;;;1.88;;
27225;SDS011;14732;51.074;3.788;2022-11-18T07:44:51;16.05;;;2.30;;
27225;SDS011;14732;51.074;3.788;2022-11-18T07:47:17;10.80;;;2.00;;
27225;SDS011;14732;51.074;3.788;2022-11-18T07:49:43;10.90;;;1.80;;
27225;SDS011;14732;51.074;3.788;2022-11-18T07:52:08;7.15;;;1.83;;
27225;SDS011;14732;51.074;3.788;2022-11-18T07:54:34;12.32;;;2.35;;
27225;SDS011;14732;51.074;3.788;2022-11-18T07:57:00;15.70;;;2.15;;
27225;SDS011;14732;51.074;3.788;2022-11-18T07:59:25;9.43;;;2.10;;
27225;SDS011;14732;51.074;3.788;2022-11-18T08:01:51;14.30;;;2.13;;
27225;SDS011;14732;51.074;3.788;2022-11-18T08:04:16;11.60;;;2.10;;
27225;SDS011;14732;51.074;3.788;2022-11-18T08:06:42;9.10;;;2.10;;
27225;SDS011;14732;51.074;3.788;2022-11-18T08:09:08;17.30;;;2.58;;
27225;SDS011;14732;51.074;3.788;2022-11-18T08:11:34;8.43;;;2.00;;
27225;SDS011;14732;51.074;3.788;2022-11-18T08:14:00;10.77;;;2.42;;
27225;SDS011;14732;51.074;3.788;2022-11-18T08:16:25;13.63;;;2.25;;
27225;SDS011;14732;51.074;3.788;2022-11-18T08:18:51;9.07;;;2.20;;
27225;SDS011;14732;51.074;3.788;2022-11-18T08:21:18;7.05;;;2.00;;
27225;SDS011;14732;51.074;3.788;2022-11-18T08:23:49;9.75;;;2.38;;
27225;SDS011;14732;51.074;3.788;2022-11-18T08:26:16;10.82;;;2.40;;
27225;SDS011;14732;51.074;3.788;2022-11-18T08:28:42;11.82;;;2.03;;
27225;SDS011;14732;51.074;3.788;2022-11-18T08:31:09;16.30;;;2.08;;
27225;SDS011;14732;51.074;3.788;2022-11-18T08:33:45;5.53;;;2.08;;
27225;SDS011;14732;51.074;3.788;2022-11-18T08:36:18;13.52;;;2.50;;
27225;SDS011;14732;51.074;3.788;2022-11-18T08:38:46;14.52;;;2.17;;
27225;SDS011;14732;51.074;3.788;2022-11-18T08:41:12;7.90;;;2.20;;
27225;SDS011;14732;51.074;3.788;2022-11-18T08:43:40;12.80;;;2.30;;
27225;SDS011;14732;51.074;3.788;2022-11-18T08:46:06;11.30;;;2.42;;
27225;SDS011;14732;51.074;3.788;2022-11-18T08:48:31;18.13;;;2.60;;
27225;SDS011;14732;51.074;3.788;2022-11-18T08:50:57;10.23;;;2.53;;
27225;SDS011;14732;51.074;3.788;2022-11-18T08:53:23;8.77;;;2.20;;
27225;SDS011;14732;51.074;3.788;2022-11-18T08:55:56;14.35;;;2.63;;
27225;SDS011;14732;51.074;3.788;2022-11-18T08:58:22;9.88;;;2.53;;
27225;SDS011;14732;51.074;3.788;2022-11-18T09:00:48;7.50;;;2.53;;
27225;SDS011;14732;51.074;3.788;2022-11-18T09:03:14;7.65;;;2.40;;
27225;SDS011;14732;51.074;3.788;2022-11-18T09:05:40;9.32;;;2.30;;
27225;SDS011;14732;51.074;3.788;2022-11-18T09:08:05;9.00;;;2.17;;
27225;SDS011;14732;51.074;3.788;2022-11-18T09:10:31;9.02;;;2.35;;
27225;SDS011;14732;51.074;3.788;2022-11-18T09:12:58;6.93;;;2.38;;
27225;SDS011;14732;51.074;3.788;2022-11-18T09:15:24;9.48;;;2.30;;
27225;SDS011;14732;51.074;3.788;2022-11-18T09:17:51;11.48;;;2.60;;
27225;SDS011;14732;51.074;3.788;2022-11-18T09:20:17;8.85;;;2.40;;
27225;SDS011;14732;51.074;3.788;2022-11-18T09:22:43;10.27;;;2.33;;
27225;SDS011;14732;51.074;3.788;2022-11-18T09:25:08;10.00;;;2.17;;
27225;SDS011;14732;51.074;3.788;2022-11-18T09:27:34;9.95;;;2.00;;
27225;SDS011;14732;51.074;3.788;2022-11-18T09:30:00;6.45;;;2.25;;
27225;SDS011;14732;51.074;3.788;2022-11-18T09:32:25;7.35;;;2.13;;
27225;SDS011;14732;51.074;3.788;2022-11-18T09:34:51;7.90;;;2.35;;
27225;SDS011;14732;51.074;3.788;2022-11-18T09:37:17;11.02;;;2.42;;
27225;SDS011;14732;51.074;3.788;2022-11-18T09:39:43;10.10;;;2.28;;
27225;SDS011;14732;51.074;3.788;2022-11-18T09:45:06;8.45;;;2.22;;
27225;SDS011;14732;51.074;3.788;2022-11-18T09:47:35;5.10;;;2.15;;
27225;SDS011;14732;51.074;3.788;2022-11-18T09:50:02;10.70;;;2.53;;
27225;SDS011;14732;51.074;3.788;2022-11-18T09:52:32;10.52;;;2.33;;
27225;SDS011;14732;51.074;3.788;2022-11-18T09:55:14;9.60;;;2.30;;
27225;SDS011;14732;51.074;3.788;2022-11-18T09:57:43;10.45;;;2.38;;
27225;SDS011;14732;51.074;3.788;2022-11-18T10:00:16;6.10;;;2.22;;
27225;SDS011;14732;51.074;3.788;2022-11-18T10:05:28;12.32;;;2.60;;
27225;SDS011;14732;51.074;3.788;2022-11-18T10:10:43;8.25;;;2.17;;
27225;SDS011;14732;51.074;3.788;2022-11-18T10:18:53;11.35;;;2.40;;
27225;SDS011;14732;51.074;3.788;2022-11-18T10:21:56;9.48;;;2.40;;
27225;SDS011;14732;51.074;3.788;2022-11-18T10:24:40;8.25;;;1.98;;
27225;SDS011;14732;51.074;3.788;2022-11-18T10:27:09;7.80;;;1.90;;
27225;SDS011;14732;51.074;3.788;2022-11-18T10:29:39;8.77;;;3.08;;
27225;SDS011;14732;51.074;3.788;2022-11-18T10:34:35;8.45;;;2.17;;
27225;SDS011;14732;51.074;3.788;2022-11-18T10:37:28;10.00;;;2.20;;
27225;SDS011;14732;51.074;3.788;2022-11-18T10:39:59;7.25;;;2.00;;
27225;SDS011;14732;51.074;3.788;2022-11-18T10:45:31;6.72;;;2.03;;
27225;SDS011;14732;51.074;3.788;2022-11-18T10:50:39;7.25;;;2.20;;
27225;SDS011;14732;51.074;3.788;2022-11-18T10:53:28;8.43;;;2.58;;
27225;SDS011;14732;51.074;3.788;2022-11-18T10:56:00;6.47;;;2.10;;
27225;SDS011;14732;51.074;3.788;2022-11-18T10:58:28;10.07;;;2.53;;
27225;SDS011;14732;51.074;3.788;2022-11-18T11:04:33;14.32;;;2.60;;
27225;SDS011;14732;51.074;3.788;2022-11-18T11:06:46;5.82;;;2.13;;
27225;SDS011;14732;51.074;3.788;2022-11-18T11:11:39;8.85;;;2.58;;
27225;SDS011;14732;51.074;3.788;2022-11-18T11:14:25;12.63;;;2.50;;
27225;SDS011;14732;51.074;3.788;2022-11-18T11:17:11;12.88;;;2.60;;
27225;SDS011;14732;51.074;3.788;2022-11-18T11:22:47;8.25;;;2.22;;
27225;SDS011;14732;51.074;3.788;2022-11-18T11:25:14;7.60;;;2.58;;
27225;SDS011;14732;51.074;3.788;2022-11-18T11:30:20;7.50;;;2.33;;
27225;SDS011;14732;51.074;3.788;2022-11-18T11:39:00;14.45;;;2.60;;
27225;SDS011;14732;51.074;3.788;2022-11-18T11:41:29;11.85;;;2.35;;
27225;SDS011;14732;51.074;3.788;2022-11-18T11:52:39;7.00;;;2.60;;
27225;SDS011;14732;51.074;3.788;2022-11-18T11:55:23;8.77;;;2.97;;
27225;SDS011;14732;51.074;3.788;2022-11-18T12:01:07;8.20;;;2.15;;
27225;SDS011;14732;51.074;3.788;2022-11-18T12:03:49;9.85;;;2.35;;
27225;SDS011;14732;51.074;3.788;2022-11-18T12:06:31;4.97;;;2.25;;
27225;SDS011;14732;51.074;3.788;2022-11-18T12:09:02;9.75;;;2.78;;
27225;SDS011;14732;51.074;3.788;2022-11-18T12:11:43;7.47;;;2.35;;
27225;SDS011;14732;51.074;3.788;2022-11-18T12:17:07;12.57;;;2.83;;
27225;SDS011;14732;51.074;3.788;2022-11-18T12:19:39;5.95;;;2.83;;
27225;SDS011;14732;51.074;3.788;2022-11-18T12:22:05;8.80;;;2.80;;
27225;SDS011;14732;51.074;3.788;2022-11-18T12:24:32;9.57;;;2.90;;
27225;SDS011;14732;51.074;3.788;2022-11-18T12:29:27;9.73;;;2.85;;
27225;SDS011;14732;51.074;3.788;2022-11-18T12:32:00;9.18;;;2.80;;
27225;SDS011;14732;51.074;3.788;2022-11-18T12:37:36;10.73;;;3.05;;
27225;SDS011;14732;51.074;3.788;2022-11-18T12:45:37;14.25;;;2.95;;
27225;SDS011;14732;51.074;3.788;2022-11-18T12:48:35;7.50;;;2.90;;
27225;SDS011;14732;51.074;3.788;2022-11-18T12:53:41;8.77;;;3.08;;
27225;SDS011;14732;51.074;3.788;2022-11-18T12:56:31;9.17;;;3.20;;
27225;SDS011;14732;51.074;3.788;2022-11-18T12:58:59;17.75;;;2.88;;
27225;SDS011;14732;51.074;3.788;2022-11-18T13:01:26;7.43;;;2.53;;
27225;SDS011;14732;51.074;3.788;2022-11-18T13:06:40;8.90;;;2.95;;
27225;SDS011;14732;51.074;3.788;2022-11-18T13:09:12;9.43;;;3.10;;
27225;SDS011;14732;51.074;3.788;2022-11-18T13:22:53;10.23;;;2.60;;
27225;SDS011;14732;51.074;3.788;2022-11-18T13:25:39;6.63;;;2.75;;
27225;SDS011;14732;51.074;3.788;2022-11-18T13:28:17;7.60;;;2.33;;
27225;SDS011;14732;51.074;3.788;2022-11-18T13:31:11;11.55;;;2.17;;
27225;SDS011;14732;51.074;3.788;2022-11-18T13:33:44;8.40;;;1.95;;
27225;SDS011;14732;51.074;3.788;2022-11-18T13:38:59;8.45;;;2.28;;
27225;SDS011;14732;51.074;3.788;2022-11-18T13:41:28;7.10;;;2.30;;
27225;SDS011;14732;51.074;3.788;2022-11-18T13:52:13;11.77;;;2.45;;
27225;SDS011;14732;51.074;3.788;2022-11-18T13:54:52;10.73;;;2.42;;
27225;SDS011;14732;51.074;3.788;2022-11-18T13:57:20;9.55;;;2.50;;
27225;SDS011;14732;51.074;3.788;2022-11-18T13:59:49;7.07;;;2.30;;
27225;SDS011;14732;51.074;3.788;2022-11-18T14:02:16;7.60;;;2.47;;
27225;SDS011;14732;51.074;3.788;2022-11-18T14:04:53;15.25;;;2.50;;
27225;SDS011;14732;51.074;3.788;2022-11-18T14:10:07;10.93;;;2.72;;
27225;SDS011;14732;51.074;3.788;2022-11-18T14:12:39;11.45;;;2.80;;
27225;SDS011;14732;51.074;3.788;2022-11-18T14:15:12;8.18;;;2.70;;
27225;SDS011;14732;51.074;3.788;2022-11-18T14:17:54;9.80;;;3.33;;
27225;SDS011;14732;51.074;3.788;2022-11-18T14:20:21;6.07;;;2.80;;
27225;SDS011;14732;51.074;3.788;2022-11-18T14:22:52;10.07;;;3.10;;
27225;SDS011;14732;51.074;3.788;2022-11-18T14:25:30;11.00;;;3.17;;
27225;SDS011;14732;51.074;3.788;2022-11-18T14:28:08;12.93;;;3.00;;
27225;SDS011;14732;51.074;3.788;2022-11-18T14:31:28;8.80;;;3.00;;
27225;SDS011;14732;51.074;3.788;2022-11-18T14:33:35;11.70;;;3.30;;
27225;SDS011;14732;51.074;3.788;2022-11-18T14:36:07;11.82;;;3.17;;
27225;SDS011;14732;51.074;3.788;2022-11-18T14:38:45;9.75;;;3.22;;
27225;SDS011;14732;51.074;3.788;2022-11-18T14:41:13;8.13;;;3.08;;
27225;SDS011;14732;51.074;3.788;2022-11-18T14:44:01;10.10;;;3.97;;
27225;SDS011;14732;51.074;3.788;2022-11-18T14:46:26;12.02;;;3.65;;
27225;SDS011;14732;51.074;3.788;2022-11-18T14:48:52;9.40;;;3.83;;
27225;SDS011;14732;51.074;3.788;2022-11-18T14:51:18;10.98;;;4.20;;
27225;SDS011;14732;51.074;3.788;2022-11-18T14:53:43;13.15;;;4.47;;
27225;SDS011;14732;51.074;3.788;2022-11-18T14:56:13;11.90;;;4.40;;
27225;SDS011;14732;51.074;3.788;2022-11-18T14:58:51;16.90;;;4.40;;
27225;SDS011;14732;51.074;3.788;2022-11-18T15:01:16;11.90;;;5.38;;
27225;SDS011;14732;51.074;3.788;2022-11-18T15:03:42;12.63;;;4.60;;
27225;SDS011;14732;51.074;3.788;2022-11-18T15:06:10;15.27;;;4.35;;
27225;SDS011;14732;51.074;3.788;2022-11-18T15:08:41;12.73;;;4.55;;
27225;SDS011;14732;51.074;3.788;2022-11-18T15:11:08;15.40;;;4.90;;
27225;SDS011;14732;51.074;3.788;2022-11-18T15:13:34;7.82;;;4.15;;
27225;SDS011;14732;51.074;3.788;2022-11-18T15:16:05;9.35;;;5.50;;
27225;SDS011;14732;51.074;3.788;2022-11-18T15:18:38;9.63;;;4.90;;
27225;SDS011;14732;51.074;3.788;2022-11-18T15:21:04;14.18;;;6.03;;
27225;SDS011;14732;51.074;3.788;2022-11-18T15:23:29;13.90;;;5.32;;
27225;SDS011;14732;51.074;3.788;2022-11-18T15:25:55;19.58;;;6.93;;
27225;SDS011;14732;51.074;3.788;2022-11-18T15:28:21;8.13;;;4.28;;
27225;SDS011;14732;51.074;3.788;2022-11-18T15:30:46;12.75;;;5.10;;
27225;SDS011;14732;51.074;3.788;2022-11-18T15:33:12;11.43;;;4.55;;
27225;SDS011;14732;51.074;3.788;2022-11-18T15:35:38;13.90;;;4.78;;
27225;SDS011;14732;51.074;3.788;2022-11-18T15:38:03;12.23;;;5.03;;
27225;SDS011;14732;51.074;3.788;2022-11-18T15:40:30;9.00;;;6.05;;
27225;SDS011;14732;51.074;3.788;2022-11-18T15:42:55;13.00;;;5.85;;
27225;SDS011;14732;51.074;3.788;2022-11-18T15:45:21;13.80;;;4.88;;
27225;SDS011;14732;51.074;3.788;2022-11-18T15:47:47;18.70;;;5.88;;
27225;SDS011;14732;51.074;3.788;2022-11-18T15:50:15;13.73;;;5.40;;
27225;SDS011;14732;51.074;3.788;2022-11-18T15:52:41;10.65;;;4.25;;
27225;SDS011;14732;51.074;3.788;2022-11-18T15:55:06;12.60;;;4.30;;
27225;SDS011;14732;51.074;3.788;2022-11-18T15:57:32;9.05;;;4.75;;
27225;SDS011;14732;51.074;3.788;2022-11-18T15:59:58;12.88;;;4.97;;
27225;SDS011;14732;51.074;3.788;2022-11-18T16:02:24;14.20;;;5.20;;
27225;SDS011;14732;51.074;3.788;2022-11-18T16:04:49;10.80;;;5.53;;
27225;SDS011;14732;51.074;3.788;2022-11-18T16:07:15;12.40;;;5.90;;
27225;SDS011;14732;51.074;3.788;2022-11-18T16:09:41;13.82;;;5.90;;
27225;SDS011;14732;51.074;3.788;2022-11-18T16:12:25;11.25;;;5.03;;
27225;SDS011;14732;51.074;3.788;2022-11-18T16:15:09;14.45;;;5.47;;
27225;SDS011;14732;51.074;3.788;2022-11-18T16:17:53;13.73;;;5.32;;
27225;SDS011;14732;51.074;3.788;2022-11-18T16:20:20;8.77;;;4.55;;
27225;SDS011;14732;51.074;3.788;2022-11-18T16:22:45;15.02;;;5.25;;
27225;SDS011;14732;51.074;3.788;2022-11-18T16:25:11;12.50;;;5.15;;
27225;SDS011;14732;51.074;3.788;2022-11-18T16:27:37;14.88;;;5.30;;
27225;SDS011;14732;51.074;3.788;2022-11-18T16:30:03;11.35;;;5.75;;
27225;SDS011;14732;51.074;3.788;2022-11-18T16:32:29;14.30;;;6.43;;
27225;SDS011;14732;51.074;3.788;2022-11-18T16:34:55;10.85;;;5.90;;
27225;SDS011;14732;51.074;3.788;2022-11-18T16:37:22;10.75;;;6.53;;
27225;SDS011;14732;51.074;3.788;2022-11-18T16:39:48;10.77;;;5.80;;
27225;SDS011;14732;51.074;3.788;2022-11-18T16:42:13;12.07;;;6.18;;
27225;SDS011;14732;51.074;3.788;2022-11-18T16:44:39;10.18;;;5.20;;
27225;SDS011;14732;51.074;3.788;2022-11-18T16:47:05;11.27;;;4.97;;
27225;SDS011;14732;51.074;3.788;2022-11-18T16:49:32;9.93;;;4.90;;
27225;SDS011;14732;51.074;3.788;2022-11-18T16:51:58;16.42;;;5.22;;
27225;SDS011;14732;51.074;3.788;2022-11-18T16:54:27;9.25;;;4.38;;
27225;SDS011;14732;51.074;3.788;2022-11-18T16:56:55;11.43;;;4.43;;
27225;SDS011;14732;51.074;3.788;2022-11-18T16:59:23;9.50;;;4.22;;
27225;SDS011;14732;51.074;3.788;2022-11-18T17:01:51;10.02;;;4.80;;
27225;SDS011;14732;51.074;3.788;2022-11-18T17:04:17;15.52;;;4.35;;
27225;SDS011;14732;51.074;3.788;2022-11-18T17:06:44;9.52;;;4.35;;